sensor_id;sensor_type;location;lat;lon;timestamp;pressure;altitude;pressure_sealevel;temperature;humidity
70254;BME280;57649;42.968;1.608;2022-10-20T00:01:20;97316.38;;;17.65;100.00
70254;BME280;57649;42.968;1.608;2022-10-20T00:03:47;97347.84;;;17.59;100.00
70254;BME280;57649;42.968;1.608;2022-10-20T00:06:17;97311.19;;;17.63;100.00
70254;BME280;57649;42.968;1.608;2022-10-20T00:08:44;97311.78;;;17.65;99.52
70254;BME280;57649;42.968;1.608;2022-10-20T00:11:11;97311.59;;;17.67;100.00
70254;BME280;57649;42.968;1.608;2022-10-20T00:13:38;97308.06;;;17.66;100.00
70254;BME280;57649;42.968;1.608;2022-10-20T00:16:04;97282.69;;;17.61;100.00
70254;BME280;57649;42.968;1.608;2022-10-20T00:18:30;97259.81;;;17.57;100.00
70254;BME280;57649;42.968;1.608;2022-10-20T00:20:55;97248.19;;;17.49;100.00
70254;BME280;57649;42.968;1.608;2022-10-20T00:23:21;97254.63;;;17.48;100.00
70254;BME280;57649;42.968;1.608;2022-10-20T00:25:47;97263.16;;;17.45;100.00
70254;BME280;57649;42.968;1.608;2022-10-20T00:28:12;97262.00;;;17.35;100.00
70254;BME280;57649;42.968;1.608;2022-10-20T00:30:38;97265.25;;;17.43;100.00
70254;BME280;57649;42.968;1.608;2022-10-20T00:33:04;97268.19;;;17.42;100.00
70254;BME280;57649;42.968;1.608;2022-10-20T00:35:31;97312.34;;;17.36;100.00
70254;BME280;57649;42.968;1.608;2022-10-20T00:37:56;97308.75;;;17.42;100.00
70254;BME280;57649;42.968;1.608;2022-10-20T00:40:22;97304.81;;;17.44;100.00
70254;BME280;57649;42.968;1.608;2022-10-20T00:42:48;97297.16;;;17.35;100.00
70254;BME280;57649;42.968;1.608;2022-10-20T00:45:19;97263.63;;;17.42;100.00
70254;BME280;57649;42.968;1.608;2022-10-20T00:47:50;97275.25;;;17.43;100.00
70254;BME280;57649;42.968;1.608;2022-10-20T00:50:22;97278.84;;;17.37;100.00
70254;BME280;57649;42.968;1.608;2022-10-20T00:52:50;97268.41;;;17.40;100.00
70254;BME280;57649;42.968;1.608;2022-10-20T00:55:21;97253.63;;;17.36;100.00
70254;BME280;57649;42.968;1.608;2022-10-20T00:57:49;97261.81;;;17.29;100.00
70254;BME280;57649;42.968;1.608;2022-10-20T01:00:16;97271.97;;;17.34;100.00
70254;BME280;57649;42.968;1.608;2022-10-20T01:02:43;97253.22;;;17.32;100.00
70254;BME280;57649;42.968;1.608;2022-10-20T01:05:09;97234.13;;;17.27;100.00
70254;BME280;57649;42.968;1.608;2022-10-20T01:07:35;97227.88;;;17.27;100.00
70254;BME280;57649;42.968;1.608;2022-10-20T01:10:01;97233.25;;;17.34;100.00
70254;BME280;57649;42.968;1.608;2022-10-20T01:12:37;97232.44;;;17.33;100.00
70254;BME280;57649;42.968;1.608;2022-10-20T01:23:16;97219.41;;;17.10;100.00
70254;BME280;57649;42.968;1.608;2022-10-20T01:29:11;97210.09;;;16.99;100.00
70254;BME280;57649;42.968;1.608;2022-10-20T01:34:21;97223.66;;;16.92;100.00
70254;BME280;57649;42.968;1.608;2022-10-20T01:39:48;97215.97;;;16.89;100.00
70254;BME280;57649;42.968;1.608;2022-10-20T01:42:20;97222.38;;;16.95;100.00
70254;BME280;57649;42.968;1.608;2022-10-20T01:44:47;97231.34;;;16.89;100.00
70254;BME280;57649;42.968;1.608;2022-10-20T01:47:15;97217.84;;;16.89;100.00
70254;BME280;57649;42.968;1.608;2022-10-20T01:49:42;97199.53;;;16.84;100.00
70254;BME280;57649;42.968;1.608;2022-10-20T01:52:10;97209.53;;;16.84;100.00
70254;BME280;57649;42.968;1.608;2022-10-20T01:54:36;97238.41;;;16.90;100.00
70254;BME280;57649;42.968;1.608;2022-10-20T02:00:05;97221.78;;;16.86;100.00
70254;BME280;57649;42.968;1.608;2022-10-20T02:02:42;97243.41;;;16.80;100.00
70254;BME280;57649;42.968;1.608;2022-10-20T02:08:06;97264.63;;;16.83;100.00
70254;BME280;57649;42.968;1.608;2022-10-20T02:10:43;97276.66;;;16.93;100.00
70254;BME280;57649;42.968;1.608;2022-10-20T02:13:11;97267.31;;;16.96;100.00
70254;BME280;57649;42.968;1.608;2022-10-20T02:15:40;97279.16;;;16.95;100.00
70254;BME280;57649;42.968;1.608;2022-10-20T02:18:08;97287.91;;;16.90;100.00
70254;BME280;57649;42.968;1.608;2022-10-20T02:20:37;97310.38;;;16.84;100.00
70254;BME280;57649;42.968;1.608;2022-10-20T02:23:05;97313.69;;;16.80;100.00
70254;BME280;57649;42.968;1.608;2022-10-20T02:25:32;97305.59;;;16.73;100.00
70254;BME280;57649;42.968;1.608;2022-10-20T02:27:59;97295.59;;;16.73;100.00
70254;BME280;57649;42.968;1.608;2022-10-20T02:30:26;97222.00;;;16.71;100.00
70254;BME280;57649;42.968;1.608;2022-10-20T02:32:52;97126.38;;;16.72;100.00
70254;BME280;57649;42.968;1.608;2022-10-20T02:35:25;97142.78;;;16.84;100.00
70254;BME280;57649;42.968;1.608;2022-10-20T02:37:51;97153.34;;;16.79;100.00
70254;BME280;57649;42.968;1.608;2022-10-20T02:40:16;97177.69;;;16.79;100.00
70254;BME280;57649;42.968;1.608;2022-10-20T02:42:42;97172.31;;;16.72;100.00
70254;BME280;57649;42.968;1.608;2022-10-20T02:45:08;97183.13;;;16.72;100.00
70254;BME280;57649;42.968;1.608;2022-10-20T02:47:34;97176.72;;;16.67;100.00
70254;BME280;57649;42.968;1.608;2022-10-20T02:49:59;97176.06;;;16.71;100.00
70254;BME280;57649;42.968;1.608;2022-10-20T02:52:26;97116.66;;;16.51;100.00
70254;BME280;57649;42.968;1.608;2022-10-20T02:54:52;97062.63;;;16.45;100.00
70254;BME280;57649;42.968;1.608;2022-10-20T02:57:17;97116.06;;;16.43;100.00
70254;BME280;57649;42.968;1.608;2022-10-20T02:59:43;97086.53;;;16.48;100.00
70254;BME280;57649;42.968;1.608;2022-10-20T03:02:08;97108.34;;;16.60;100.00
70254;BME280;57649;42.968;1.608;2022-10-20T03:04:34;97168.00;;;16.58;100.00
70254;BME280;57649;42.968;1.608;2022-10-20T03:07:02;97142.84;;;16.58;100.00
70254;BME280;57649;42.968;1.608;2022-10-20T03:09:27;97140.97;;;16.51;100.00
70254;BME280;57649;42.968;1.608;2022-10-20T03:11:53;97121.25;;;16.51;100.00
70254;BME280;57649;42.968;1.608;2022-10-20T03:14:18;97108.34;;;16.53;100.00
70254;BME280;57649;42.968;1.608;2022-10-20T03:16:43;97106.25;;;16.62;100.00
70254;BME280;57649;42.968;1.608;2022-10-20T03:19:09;97094.22;;;16.51;100.00
70254;BME280;57649;42.968;1.608;2022-10-20T03:21:34;97095.91;;;16.39;100.00
70254;BME280;57649;42.968;1.608;2022-10-20T03:23:59;97102.78;;;16.41;100.00
70254;BME280;57649;42.968;1.608;2022-10-20T03:26:25;97100.09;;;16.34;100.00
70254;BME280;57649;42.968;1.608;2022-10-20T03:28:50;97093.88;;;16.27;100.00
70254;BME280;57649;42.968;1.608;2022-10-20T03:31:16;97080.19;;;16.22;100.00
70254;BME280;57649;42.968;1.608;2022-10-20T03:33:41;97077.28;;;16.17;100.00
70254;BME280;57649;42.968;1.608;2022-10-20T03:36:07;97084.34;;;16.18;100.00
70254;BME280;57649;42.968;1.608;2022-10-20T03:38:33;97079.41;;;16.08;100.00
70254;BME280;57649;42.968;1.608;2022-10-20T03:40:58;97095.19;;;16.05;100.00
70254;BME280;57649;42.968;1.608;2022-10-20T03:43:23;97118.03;;;15.95;100.00
70254;BME280;57649;42.968;1.608;2022-10-20T03:45:49;97111.38;;;16.05;100.00
70254;BME280;57649;42.968;1.608;2022-10-20T03:48:14;97107.25;;;15.95;100.00
70254;BME280;57649;42.968;1.608;2022-10-20T03:50:41;97108.28;;;15.94;100.00
70254;BME280;57649;42.968;1.608;2022-10-20T03:53:07;97105.16;;;15.97;100.00
70254;BME280;57649;42.968;1.608;2022-10-20T03:55:37;97099.75;;;15.97;100.00
70254;BME280;57649;42.968;1.608;2022-10-20T03:58:02;97092.28;;;16.00;100.00
70254;BME280;57649;42.968;1.608;2022-10-20T04:00:30;97111.38;;;15.98;100.00
70254;BME280;57649;42.968;1.608;2022-10-20T04:02:55;97109.28;;;16.00;100.00
70254;BME280;57649;42.968;1.608;2022-10-20T04:05:20;97106.59;;;16.00;100.00
70254;BME280;57649;42.968;1.608;2022-10-20T04:07:46;97092.91;;;15.95;100.00
70254;BME280;57649;42.968;1.608;2022-10-20T04:10:13;97099.75;;;15.97;100.00
70254;BME280;57649;42.968;1.608;2022-10-20T04:12:39;97086.69;;;16.01;100.00
70254;BME280;57649;42.968;1.608;2022-10-20T04:15:05;97070.69;;;16.00;100.00
70254;BME280;57649;42.968;1.608;2022-10-20T04:17:31;97071.50;;;16.00;100.00
70254;BME280;57649;42.968;1.608;2022-10-20T04:19:56;97082.31;;;16.07;100.00
70254;BME280;57649;42.968;1.608;2022-10-20T04:22:22;97063.59;;;16.05;100.00
70254;BME280;57649;42.968;1.608;2022-10-20T04:24:48;97057.34;;;16.18;100.00
70254;BME280;57649;42.968;1.608;2022-10-20T04:27:14;97059.38;;;16.23;100.00
70254;BME280;57649;42.968;1.608;2022-10-20T04:29:39;97081.41;;;16.26;100.00
70254;BME280;57649;42.968;1.608;2022-10-20T04:32:05;97081.00;;;16.23;100.00
70254;BME280;57649;42.968;1.608;2022-10-20T04:34:30;97074.38;;;16.19;100.00
70254;BME280;57649;42.968;1.608;2022-10-20T04:36:56;97067.72;;;16.21;100.00
70254;BME280;57649;42.968;1.608;2022-10-20T04:39:22;97080.38;;;16.34;100.00
70254;BME280;57649;42.968;1.608;2022-10-20T04:41:47;97090.16;;;16.28;100.00
70254;BME280;57649;42.968;1.608;2022-10-20T04:44:13;97071.66;;;16.25;100.00
70254;BME280;57649;42.968;1.608;2022-10-20T04:46:38;97066.06;;;16.27;100.00
70254;BME280;57649;42.968;1.608;2022-10-20T04:49:06;97075.59;;;16.29;100.00
70254;BME280;57649;42.968;1.608;2022-10-20T04:51:32;97092.00;;;16.28;100.00
70254;BME280;57649;42.968;1.608;2022-10-20T04:53:58;97102.59;;;16.29;100.00
70254;BME280;57649;42.968;1.608;2022-10-20T04:56:24;97103.81;;;16.33;100.00
70254;BME280;57649;42.968;1.608;2022-10-20T04:58:54;97086.38;;;16.36;100.00
70254;BME280;57649;42.968;1.608;2022-10-20T05:01:22;97076.41;;;16.36;100.00
70254;BME280;57649;42.968;1.608;2022-10-20T05:03:47;97086.81;;;16.26;100.00
70254;BME280;57649;42.968;1.608;2022-10-20T05:06:18;97072.06;;;16.29;100.00
70254;BME280;57649;42.968;1.608;2022-10-20T05:08:46;97071.25;;;16.28;100.00
70254;BME280;57649;42.968;1.608;2022-10-20T05:11:13;97063.13;;;16.28;100.00
70254;BME280;57649;42.968;1.608;2022-10-20T05:13:39;97061.06;;;16.30;100.00
70254;BME280;57649;42.968;1.608;2022-10-20T05:16:05;97066.88;;;16.27;100.00
70254;BME280;57649;42.968;1.608;2022-10-20T05:18:33;97048.19;;;16.19;100.00
70254;BME280;57649;42.968;1.608;2022-10-20T05:21:15;97060.66;;;16.20;100.00
70254;BME280;57649;42.968;1.608;2022-10-20T05:23:41;97057.13;;;16.20;100.00
70254;BME280;57649;42.968;1.608;2022-10-20T05:26:12;97055.66;;;16.24;100.00
70254;BME280;57649;42.968;1.608;2022-10-20T05:28:41;97065.59;;;16.36;100.00
70254;BME280;57649;42.968;1.608;2022-10-20T05:31:08;97048.97;;;16.33;100.00
70254;BME280;57649;42.968;1.608;2022-10-20T05:33:34;97045.59;;;16.44;100.00
70254;BME280;57649;42.968;1.608;2022-10-20T05:35:59;97046.19;;;16.53;100.00
70254;BME280;57649;42.968;1.608;2022-10-20T05:38:30;97043.50;;;16.53;100.00
70254;BME280;57649;42.968;1.608;2022-10-20T05:41:07;97044.38;;;16.47;100.00
70254;BME280;57649;42.968;1.608;2022-10-20T05:43:32;97037.09;;;16.41;100.00
70254;BME280;57649;42.968;1.608;2022-10-20T05:46:01;97027.09;;;16.48;100.00
70254;BME280;57649;42.968;1.608;2022-10-20T05:48:26;97028.19;;;16.40;100.00
70254;BME280;57649;42.968;1.608;2022-10-20T05:50:52;97013.16;;;16.51;100.00
70254;BME280;57649;42.968;1.608;2022-10-20T05:53:17;97016.09;;;16.43;100.00
70254;BME280;57649;42.968;1.608;2022-10-20T05:55:43;97022.97;;;16.39;100.00
70254;BME280;57649;42.968;1.608;2022-10-20T05:58:09;97024.44;;;16.41;100.00
70254;BME280;57649;42.968;1.608;2022-10-20T06:00:34;97018.44;;;16.32;100.00
70254;BME280;57649;42.968;1.608;2022-10-20T06:03:07;97029.69;;;16.23;100.00
70254;BME280;57649;42.968;1.608;2022-10-20T06:05:32;97016.78;;;16.31;100.00
70254;BME280;57649;42.968;1.608;2022-10-20T06:07:58;97011.78;;;16.35;100.00
70254;BME280;57649;42.968;1.608;2022-10-20T06:10:23;97015.94;;;16.38;100.00
70254;BME280;57649;42.968;1.608;2022-10-20T06:12:49;97009.53;;;16.25;100.00
70254;BME280;57649;42.968;1.608;2022-10-20T06:15:14;97010.75;;;16.29;100.00
70254;BME280;57649;42.968;1.608;2022-10-20T06:17:40;97003.75;;;16.15;100.00
70254;BME280;57649;42.968;1.608;2022-10-20T06:20:05;96993.16;;;16.13;100.00
70254;BME280;57649;42.968;1.608;2022-10-20T06:22:31;96990.44;;;16.20;100.00
70254;BME280;57649;42.968;1.608;2022-10-20T06:24:56;96996.84;;;16.26;100.00
70254;BME280;57649;42.968;1.608;2022-10-20T06:27:21;97022.19;;;16.31;100.00
70254;BME280;57649;42.968;1.608;2022-10-20T06:29:47;97020.75;;;16.22;100.00
70254;BME280;57649;42.968;1.608;2022-10-20T06:32:12;96997.88;;;16.31;100.00
70254;BME280;57649;42.968;1.608;2022-10-20T06:34:38;96976.06;;;16.26;100.00
70254;BME280;57649;42.968;1.608;2022-10-20T06:37:03;97016.19;;;16.23;100.00
70254;BME280;57649;42.968;1.608;2022-10-20T06:39:29;97021.56;;;16.23;100.00
70254;BME280;57649;42.968;1.608;2022-10-20T06:41:54;97016.59;;;16.26;100.00
70254;BME280;57649;42.968;1.608;2022-10-20T06:44:21;97018.25;;;16.27;100.00
70254;BME280;57649;42.968;1.608;2022-10-20T06:46:47;97021.56;;;16.23;100.00
70254;BME280;57649;42.968;1.608;2022-10-20T06:49:13;97024.47;;;16.28;100.00
70254;BME280;57649;42.968;1.608;2022-10-20T06:51:39;97012.88;;;16.21;100.00
70254;BME280;57649;42.968;1.608;2022-10-20T06:54:05;97012.88;;;16.21;100.00
70254;BME280;57649;42.968;1.608;2022-10-20T06:56:33;97004.22;;;16.05;100.00
70254;BME280;57649;42.968;1.608;2022-10-20T06:58:59;97015.41;;;16.09;100.00
70254;BME280;57649;42.968;1.608;2022-10-20T07:01:35;97019.59;;;16.05;100.00
70254;BME280;57649;42.968;1.608;2022-10-20T07:04:04;97030.38;;;15.98;100.00
70254;BME280;57649;42.968;1.608;2022-10-20T07:06:33;97029.31;;;16.06;100.00
70254;BME280;57649;42.968;1.608;2022-10-20T07:09:02;97023.56;;;15.95;100.00
70254;BME280;57649;42.968;1.608;2022-10-20T07:11:31;97037.84;;;16.09;100.00
70254;BME280;57649;42.968;1.608;2022-10-20T07:13:58;97046.56;;;16.11;100.00
70254;BME280;57649;42.968;1.608;2022-10-20T07:16:25;97054.84;;;16.10;100.00
70254;BME280;57649;42.968;1.608;2022-10-20T07:18:51;97048.63;;;16.16;100.00
70254;BME280;57649;42.968;1.608;2022-10-20T07:21:20;97043.63;;;16.13;100.00
70254;BME280;57649;42.968;1.608;2022-10-20T07:23:47;97048.00;;;16.14;100.00
70254;BME280;57649;42.968;1.608;2022-10-20T07:26:19;97065.25;;;16.20;100.00
70254;BME280;57649;42.968;1.608;2022-10-20T07:28:47;97065.25;;;16.13;100.00
70254;BME280;57649;42.968;1.608;2022-10-20T07:31:16;97055.06;;;16.15;100.00
70254;BME280;57649;42.968;1.608;2022-10-20T07:33:42;97052.97;;;16.24;100.00
70254;BME280;57649;42.968;1.608;2022-10-20T07:36:22;97046.28;;;16.26;100.00
70254;BME280;57649;42.968;1.608;2022-10-20T07:38:48;97054.38;;;16.33;100.00
70254;BME280;57649;42.968;1.608;2022-10-20T07:41:15;97033.63;;;16.27;100.00
70254;BME280;57649;42.968;1.608;2022-10-20T07:43:41;97030.25;;;16.38;100.00
70254;BME280;57649;42.968;1.608;2022-10-20T07:46:07;97036.06;;;16.42;100.00
70254;BME280;57649;42.968;1.608;2022-10-20T07:48:33;97023.38;;;16.42;100.00
70254;BME280;57649;42.968;1.608;2022-10-20T07:53:47;97048.28;;;16.51;99.66
70254;BME280;57649;42.968;1.608;2022-10-20T07:56:13;97049.50;;;16.62;99.10
70254;BME280;57649;42.968;1.608;2022-10-20T07:58:39;97034.09;;;16.62;98.78
70254;BME280;57649;42.968;1.608;2022-10-20T08:01:05;97036.78;;;16.69;98.42
70254;BME280;57649;42.968;1.608;2022-10-20T08:03:30;97039.91;;;16.66;97.92
70254;BME280;57649;42.968;1.608;2022-10-20T08:05:56;97053.16;;;16.74;97.95
70254;BME280;57649;42.968;1.608;2022-10-20T08:08:21;97043.00;;;16.69;98.07
70254;BME280;57649;42.968;1.608;2022-10-20T08:10:47;97043.22;;;16.68;98.47
70254;BME280;57649;42.968;1.608;2022-10-20T08:13:12;97032.19;;;16.69;97.89
70254;BME280;57649;42.968;1.608;2022-10-20T08:15:37;97033.63;;;16.72;97.96
70254;BME280;57649;42.968;1.608;2022-10-20T08:18:03;97036.47;;;16.90;96.87
70254;BME280;57649;42.968;1.608;2022-10-20T08:20:29;97035.03;;;16.88;97.47
70254;BME280;57649;42.968;1.608;2022-10-20T08:22:56;97026.22;;;16.99;97.05
70254;BME280;57649;42.968;1.608;2022-10-20T08:25:22;97028.28;;;17.04;97.33
70254;BME280;57649;42.968;1.608;2022-10-20T08:27:47;97041.53;;;17.12;95.16
70254;BME280;57649;42.968;1.608;2022-10-20T08:30:13;97045.53;;;17.03;93.84
70254;BME280;57649;42.968;1.608;2022-10-20T08:32:38;97049.25;;;17.08;93.95
70254;BME280;57649;42.968;1.608;2022-10-20T08:35:04;97056.56;;;17.01;94.79
70254;BME280;57649;42.968;1.608;2022-10-20T08:37:30;97048.66;;;17.00;94.63
70254;BME280;57649;42.968;1.608;2022-10-20T08:39:55;97030.31;;;17.08;95.24
70254;BME280;57649;42.968;1.608;2022-10-20T08:42:21;97017.78;;;17.14;95.07
70254;BME280;57649;42.968;1.608;2022-10-20T08:44:47;97041.50;;;17.19;94.85
70254;BME280;57649;42.968;1.608;2022-10-20T08:47:21;97041.38;;;17.32;94.91
70254;BME280;57649;42.968;1.608;2022-10-20T08:49:48;97040.25;;;17.46;94.90
70254;BME280;57649;42.968;1.608;2022-10-20T08:52:14;97035.03;;;17.45;93.00
70254;BME280;57649;42.968;1.608;2022-10-20T08:54:40;97029.28;;;17.60;91.24
70254;BME280;57649;42.968;1.608;2022-10-20T08:57:21;97037.63;;;17.58;91.58
70254;BME280;57649;42.968;1.608;2022-10-20T08:59:50;97023.59;;;17.68;92.64
70254;BME280;57649;42.968;1.608;2022-10-20T09:02:16;97022.06;;;17.79;91.96
70254;BME280;57649;42.968;1.608;2022-10-20T09:04:47;97011.50;;;17.96;91.86
70254;BME280;57649;42.968;1.608;2022-10-20T09:07:34;96995.59;;;18.18;91.25
70254;BME280;57649;42.968;1.608;2022-10-20T09:12:42;97001.91;;;18.79;86.43
70254;BME280;57649;42.968;1.608;2022-10-20T09:15:11;97002.81;;;18.91;84.89
70254;BME280;57649;42.968;1.608;2022-10-20T09:17:40;96997.22;;;19.28;85.19
70254;BME280;57649;42.968;1.608;2022-10-20T09:20:16;96986.88;;;19.60;84.05
70254;BME280;57649;42.968;1.608;2022-10-20T09:22:43;96995.88;;;19.85;81.64
70254;BME280;57649;42.968;1.608;2022-10-20T09:25:19;96992.38;;;20.25;78.60
70254;BME280;57649;42.968;1.608;2022-10-20T09:27:46;96996.84;;;20.43;74.20
70254;BME280;57649;42.968;1.608;2022-10-20T09:30:32;96979.72;;;20.71;74.17
70254;BME280;57649;42.968;1.608;2022-10-20T09:32:58;96995.06;;;20.77;75.09
70254;BME280;57649;42.968;1.608;2022-10-20T09:35:32;96984.84;;;21.13;73.63
70254;BME280;57649;42.968;1.608;2022-10-20T09:40:28;96977.03;;;21.67;71.82
70254;BME280;57649;42.968;1.608;2022-10-20T09:43:00;96976.75;;;21.86;72.04
70254;BME280;57649;42.968;1.608;2022-10-20T09:45:28;96989.47;;;21.80;70.06
70254;BME280;57649;42.968;1.608;2022-10-20T09:48:04;96990.53;;;21.96;68.64
70254;BME280;57649;42.968;1.608;2022-10-20T09:50:36;96983.56;;;22.05;68.97
70254;BME280;57649;42.968;1.608;2022-10-20T09:53:21;96990.34;;;21.47;69.79
70254;BME280;57649;42.968;1.608;2022-10-20T09:55:49;96998.81;;;21.67;70.82
70254;BME280;57649;42.968;1.608;2022-10-20T09:58:36;97007.22;;;21.83;69.96
70254;BME280;57649;42.968;1.608;2022-10-20T10:01:05;96997.50;;;21.53;69.88
70254;BME280;57649;42.968;1.608;2022-10-20T10:03:57;97008.41;;;21.53;70.62
70254;BME280;57649;42.968;1.608;2022-10-20T10:06:41;96997.59;;;21.58;70.51
70254;BME280;57649;42.968;1.608;2022-10-20T10:09:42;96987.16;;;21.38;70.61
70254;BME280;57649;42.968;1.608;2022-10-20T10:12:18;96983.88;;;21.53;69.22
70254;BME280;57649;42.968;1.608;2022-10-20T10:15:23;96959.69;;;21.40;69.41
70254;BME280;57649;42.968;1.608;2022-10-20T10:17:50;96959.69;;;21.57;70.38
70254;BME280;57649;42.968;1.608;2022-10-20T10:22:42;96959.66;;;22.13;69.43
70254;BME280;57649;42.968;1.608;2022-10-20T10:25:17;96960.63;;;22.45;68.85
70254;BME280;57649;42.968;1.608;2022-10-20T10:28:01;96945.59;;;22.43;69.11
70254;BME280;57649;42.968;1.608;2022-10-20T10:30:33;96935.16;;;22.62;67.27
70254;BME280;57649;42.968;1.608;2022-10-20T10:32:59;96921.03;;;22.65;66.29
70254;BME280;57649;42.968;1.608;2022-10-20T10:35:36;96926.22;;;23.26;63.87
70254;BME280;57649;42.968;1.608;2022-10-20T10:38:04;96910.59;;;23.54;65.33
70254;BME280;57649;42.968;1.608;2022-10-20T10:46:10;96920.97;;;23.94;60.77
70254;BME280;57649;42.968;1.608;2022-10-20T10:54:02;96917.50;;;24.19;57.74
70254;BME280;57649;42.968;1.608;2022-10-20T10:56:38;96908.84;;;24.38;58.76
70254;BME280;57649;42.968;1.608;2022-10-20T11:18:16;96894.28;;;24.32;57.64
70254;BME280;57649;42.968;1.608;2022-10-20T11:24:11;96888.53;;;24.18;60.49
70254;BME280;57649;42.968;1.608;2022-10-20T11:26:54;96888.84;;;24.27;60.32
70254;BME280;57649;42.968;1.608;2022-10-20T11:35:47;96865.94;;;24.59;57.29
70254;BME280;57649;42.968;1.608;2022-10-20T11:40:49;96850.28;;;24.34;52.41
70254;BME280;57649;42.968;1.608;2022-10-20T11:43:24;96871.06;;;24.35;51.40
70254;BME280;57649;42.968;1.608;2022-10-20T11:46:04;96895.47;;;24.52;49.24
70254;BME280;57649;42.968;1.608;2022-10-20T11:48:52;96879.09;;;24.57;49.78
70254;BME280;57649;42.968;1.608;2022-10-20T12:10:59;96863.25;;;25.15;47.22
70254;BME280;57649;42.968;1.608;2022-10-20T12:13:50;96836.13;;;25.09;45.87
70254;BME280;57649;42.968;1.608;2022-10-20T12:19:18;96888.97;;;25.20;46.40
70254;BME280;57649;42.968;1.608;2022-10-20T12:21:59;96852.00;;;25.32;37.43
70254;BME280;57649;42.968;1.608;2022-10-20T12:34:56;96762.81;;;25.76;34.16
70254;BME280;57649;42.968;1.608;2022-10-20T12:37:34;96780.88;;;25.82;35.66
70254;BME280;57649;42.968;1.608;2022-10-20T12:40:24;96784.78;;;25.66;32.79
70254;BME280;57649;42.968;1.608;2022-10-20T12:42:52;96754.69;;;25.50;33.96
70254;BME280;57649;42.968;1.608;2022-10-20T12:47:53;96741.28;;;25.49;33.39
70254;BME280;57649;42.968;1.608;2022-10-20T12:50:40;96725.06;;;25.58;34.46
70254;BME280;57649;42.968;1.608;2022-10-20T12:53:22;96718.19;;;25.60;35.68
70254;BME280;57649;42.968;1.608;2022-10-20T12:56:26;96688.59;;;25.62;35.65
70254;BME280;57649;42.968;1.608;2022-10-20T13:04:56;96690.81;;;25.55;35.45
70254;BME280;57649;42.968;1.608;2022-10-20T13:08:01;96710.59;;;25.52;36.87
70254;BME280;57649;42.968;1.608;2022-10-20T13:10:33;96720.94;;;25.60;37.97
70254;BME280;57649;42.968;1.608;2022-10-20T13:17:59;96696.88;;;25.52;38.29
70254;BME280;57649;42.968;1.608;2022-10-20T13:20:51;96702.00;;;25.64;35.43
70254;BME280;57649;42.968;1.608;2022-10-20T13:23:22;96695.44;;;25.65;36.04
70254;BME280;57649;42.968;1.608;2022-10-20T13:25:54;96708.53;;;25.73;36.86
70254;BME280;57649;42.968;1.608;2022-10-20T13:28:26;96719.19;;;25.80;38.37
70254;BME280;57649;42.968;1.608;2022-10-20T13:35:55;96697.50;;;25.88;35.48
70254;BME280;57649;42.968;1.608;2022-10-20T13:38:40;96701.09;;;25.79;35.41
70254;BME280;57649;42.968;1.608;2022-10-20T13:41:33;96701.94;;;25.79;37.51
70254;BME280;57649;42.968;1.608;2022-10-20T13:44:25;96703.16;;;25.58;36.88
70254;BME280;57649;42.968;1.608;2022-10-20T13:49:58;96694.78;;;25.33;36.18
70254;BME280;57649;42.968;1.608;2022-10-20T13:52:25;96680.28;;;25.28;34.98
70254;BME280;57649;42.968;1.608;2022-10-20T13:54:52;96691.25;;;25.28;34.43
70254;BME280;57649;42.968;1.608;2022-10-20T13:57:29;96715.34;;;25.15;34.71
70254;BME280;57649;42.968;1.608;2022-10-20T14:00:00;96706.63;;;25.03;35.71
70254;BME280;57649;42.968;1.608;2022-10-20T14:02:29;96692.03;;;25.18;33.68
70254;BME280;57649;42.968;1.608;2022-10-20T14:05:22;96698.59;;;25.22;34.07
70254;BME280;57649;42.968;1.608;2022-10-20T14:07:48;96706.56;;;25.29;33.80
70254;BME280;57649;42.968;1.608;2022-10-20T14:13:02;96703.88;;;25.08;34.39
70254;BME280;57649;42.968;1.608;2022-10-20T14:15:32;96721.91;;;25.09;35.83
70254;BME280;57649;42.968;1.608;2022-10-20T14:18:05;96732.34;;;25.07;34.95
70254;BME280;57649;42.968;1.608;2022-10-20T14:20:33;96721.38;;;25.07;35.83
70254;BME280;57649;42.968;1.608;2022-10-20T14:23:02;96716.47;;;25.04;34.15
70254;BME280;57649;42.968;1.608;2022-10-20T14:25:29;96719.22;;;24.99;34.28
70254;BME280;57649;42.968;1.608;2022-10-20T14:27:56;96742.78;;;24.90;34.76
70254;BME280;57649;42.968;1.608;2022-10-20T14:30:22;96723.31;;;24.96;34.38
70254;BME280;57649;42.968;1.608;2022-10-20T14:32:49;96720.31;;;25.03;34.56
70254;BME280;57649;42.968;1.608;2022-10-20T14:35:17;96707.69;;;25.07;35.28
70254;BME280;57649;42.968;1.608;2022-10-20T14:37:50;96698.94;;;25.10;34.61
70254;BME280;57649;42.968;1.608;2022-10-20T14:40:22;96701.63;;;25.26;37.03
70254;BME280;57649;42.968;1.608;2022-10-20T14:42:48;96709.28;;;25.29;35.70
70254;BME280;57649;42.968;1.608;2022-10-20T14:45:22;96726.84;;;25.17;36.22
70254;BME280;57649;42.968;1.608;2022-10-20T14:47:49;96730.13;;;25.14;35.91
70254;BME280;57649;42.968;1.608;2022-10-20T14:50:26;96735.59;;;25.14;35.50
70254;BME280;57649;42.968;1.608;2022-10-20T14:52:55;96729.06;;;25.00;35.99
70254;BME280;57649;42.968;1.608;2022-10-20T14:55:34;96720.88;;;24.90;37.34
70254;BME280;57649;42.968;1.608;2022-10-20T14:58:01;96716.00;;;24.71;35.68
70254;BME280;57649;42.968;1.608;2022-10-20T15:00:35;96721.44;;;24.87;34.32
70254;BME280;57649;42.968;1.608;2022-10-20T15:03:03;96722.78;;;24.94;33.67
70254;BME280;57649;42.968;1.608;2022-10-20T15:08:07;96713.47;;;24.95;34.57
70254;BME280;57649;42.968;1.608;2022-10-20T15:10:34;96698.72;;;24.91;34.89
70254;BME280;57649;42.968;1.608;2022-10-20T15:13:00;96713.75;;;24.84;35.48
70254;BME280;57649;42.968;1.608;2022-10-20T15:15:36;96702.81;;;24.84;35.73
70254;BME280;57649;42.968;1.608;2022-10-20T15:20:31;96702.84;;;24.68;35.25
70254;BME280;57649;42.968;1.608;2022-10-20T15:23:08;96694.91;;;24.72;35.29
70254;BME280;57649;42.968;1.608;2022-10-20T15:30:53;96692.44;;;24.19;41.37